createdAt,value
2022-09-02T00:01:27.959Z,15.16
2022-09-02T00:02:31.837Z,15.04
2022-09-02T00:03:37.043Z,15.07
2022-09-02T00:04:40.692Z,15.04
2022-09-02T00:05:44.853Z,15.04
2022-09-02T00:06:50.310Z,15.03
2022-09-02T00:07:55.721Z,14.92
2022-09-02T00:09:01.644Z,14.74
2022-09-02T00:10:06.224Z,14.76
2022-09-02T00:11:14.678Z,14.82
2022-09-02T00:12:19.398Z,14.72
2022-09-02T00:13:23.638Z,14.70
2022-09-02T00:14:35.133Z,14.67
2022-09-02T00:15:40.136Z,14.47
2022-09-02T00:16:45.919Z,14.32
2022-09-02T00:17:49.577Z,14.25
2022-09-02T00:18:57.988Z,14.17
2022-09-02T00:20:01.599Z,14.20
2022-09-02T00:21:05.878Z,14.23
2022-09-02T00:22:12.911Z,14.23
2022-09-02T00:23:17.965Z,14.14
2022-09-02T00:24:22.921Z,14.15
2022-09-02T00:25:28.232Z,14.15
2022-09-02T00:26:37.895Z,14.20
2022-09-02T00:29:03.188Z,14.04
2022-09-02T00:30:11.165Z,13.93
2022-09-02T00:31:16.260Z,13.96
2022-09-02T00:32:21.848Z,13.87
2022-09-02T00:33:26.471Z,13.74
2022-09-02T00:34:30.213Z,13.63
2022-09-02T00:35:35.718Z,13.79
2022-09-02T00:36:39.124Z,13.70
2022-09-02T00:37:42.685Z,13.60
2022-09-02T00:38:47.481Z,13.64
2022-09-02T00:39:53.563Z,13.71
2022-09-02T00:40:57.689Z,13.68
2022-09-02T00:42:01.079Z,13.69
2022-09-02T00:43:15.490Z,13.74
2022-09-02T00:44:22.365Z,13.68
2022-09-02T00:45:27.856Z,13.52
2022-09-02T00:46:34.500Z,13.51
2022-09-02T00:47:38.498Z,13.51
2022-09-02T00:48:49.278Z,13.55
2022-09-02T00:49:55.210Z,13.54
2022-09-02T00:51:06.819Z,13.59
2022-09-02T00:52:24.616Z,13.48
2022-09-02T00:53:29.406Z,13.55
2022-09-02T00:54:35.804Z,13.63
2022-09-02T00:55:45.933Z,13.63
2022-09-02T00:56:53.803Z,13.63
2022-09-02T00:58:02.090Z,13.68
2022-09-02T00:59:07.186Z,13.59
2022-09-02T01:00:18.118Z,13.61
2022-09-02T01:01:22.712Z,13.67
2022-09-02T01:02:30.872Z,13.71
2022-09-02T01:03:34.895Z,13.79
2022-09-02T01:04:39.029Z,13.80
2022-09-02T01:05:45.598Z,13.71
2022-09-02T01:06:49.587Z,13.60
2022-09-02T01:07:57.021Z,13.49
2022-09-02T01:09:05.866Z,13.42
2022-09-02T01:10:13.523Z,13.35
2022-09-02T01:11:19.866Z,13.26
2022-09-02T01:12:28.630Z,13.20
2022-09-02T01:13:37.250Z,13.26
2022-09-02T01:14:44.310Z,13.17
2022-09-02T01:15:52.573Z,13.20
2022-09-02T01:17:01.763Z,13.14
2022-09-02T01:18:08.233Z,13.03
2022-09-02T01:19:15.495Z,13.01
2022-09-02T01:20:25.665Z,12.93
2022-09-02T01:21:29.570Z,12.89
2022-09-02T01:22:34.014Z,12.81
2022-09-02T01:23:42.196Z,12.81
2022-09-02T01:24:46.873Z,12.83
2022-09-02T01:25:52.660Z,12.86
2022-09-02T01:27:00.181Z,12.84
2022-09-02T01:28:07.404Z,12.85
2022-09-02T01:29:11.329Z,12.76
2022-09-02T01:30:19.381Z,12.87
2022-09-02T01:31:23.312Z,12.82
2022-09-02T01:32:30.175Z,12.90
2022-09-02T01:33:35.539Z,12.92
2022-09-02T01:34:39.310Z,13.01
2022-09-02T01:35:42.977Z,13.11
2022-09-02T01:36:47.881Z,13.09
2022-09-02T01:37:56.097Z,13.16
2022-09-02T01:39:01.159Z,13.20
2022-09-02T01:40:07.240Z,13.20
2022-09-02T01:41:10.938Z,13.17
2022-09-02T01:42:16.481Z,13.22
2022-09-02T01:43:27.511Z,13.22
2022-09-02T01:44:31.186Z,13.18
2022-09-02T01:45:37.072Z,12.97
2022-09-02T01:46:40.564Z,13.06
2022-09-02T01:47:45.343Z,13.14
2022-09-02T01:48:49.238Z,13.12
2022-09-02T01:49:53.448Z,13.14
2022-09-02T01:51:01.574Z,13.03
2022-09-02T01:52:06.663Z,13.14
2022-09-02T01:53:11.207Z,13.23
2022-09-02T01:54:16.234Z,13.24
2022-09-02T01:55:20.819Z,13.17
2022-09-02T01:56:25.897Z,13.22
2022-09-02T01:57:30.886Z,12.97
2022-09-02T01:58:34.690Z,12.89
2022-09-02T01:59:41.521Z,12.78
2022-09-02T02:00:48.753Z,12.75
2022-09-02T02:01:58.716Z,12.72
2022-09-02T02:03:05.284Z,12.67
2022-09-02T02:04:13.671Z,12.72
2022-09-02T02:05:19.693Z,12.71
2022-09-02T02:06:24.929Z,12.69
2022-09-02T02:07:30.203Z,12.66
2022-09-02T02:08:35.360Z,12.65
2022-09-02T02:09:40.919Z,12.59
2022-09-02T02:10:45.856Z,12.62
2022-09-02T02:11:49.742Z,12.65
2022-09-02T02:12:53.778Z,12.60
2022-09-02T02:13:59.593Z,12.60
2022-09-02T02:15:12.081Z,12.56
2022-09-02T02:16:18.093Z,12.51
2022-09-02T02:17:21.833Z,12.47
2022-09-02T02:18:25.985Z,12.47
2022-09-02T02:19:30.244Z,12.39
2022-09-02T02:20:35.429Z,12.43
2022-09-02T02:21:38.904Z,12.48
2022-09-02T02:22:46.465Z,12.39
2022-09-02T02:23:50.196Z,12.37
2022-09-02T02:24:55.091Z,12.39
2022-09-02T02:25:58.890Z,12.31
2022-09-02T02:27:05.554Z,12.31
2022-09-02T02:28:09.224Z,12.17
2022-09-02T02:29:14.941Z,12.14
2022-09-02T02:30:20.430Z,12.26
2022-09-02T02:31:25.886Z,12.16
2022-09-02T02:32:29.787Z,12.30
2022-09-02T02:33:36.422Z,12.29
2022-09-02T02:34:40.181Z,12.24
2022-09-02T02:36:57.737Z,12.13
2022-09-02T02:38:02.935Z,12.16
2022-09-02T02:39:10.329Z,12.17
2022-09-02T02:40:16.440Z,12.15
2022-09-02T02:41:20.639Z,12.22
2022-09-02T02:42:23.609Z,12.26
2022-09-02T02:43:29.097Z,12.23
2022-09-02T02:44:33.667Z,12.10
2022-09-02T02:45:36.333Z,12.13
2022-09-02T02:46:41.661Z,12.22
2022-09-02T02:47:47.235Z,12.25
2022-09-02T02:48:52.087Z,12.25
2022-09-02T02:49:56.252Z,12.22
2022-09-02T02:50:59.849Z,12.21
2022-09-02T02:52:05.298Z,12.17
2022-09-02T02:53:13.412Z,12.14
2022-09-02T02:54:18.050Z,12.16
2022-09-02T02:55:23.336Z,12.14
2022-09-02T02:56:31.931Z,12.02
2022-09-02T02:57:39.822Z,12.01
2022-09-02T02:58:43.831Z,12.06
2022-09-02T02:59:50.666Z,12.19
2022-09-02T03:01:00.111Z,12.09
2022-09-02T03:02:06.858Z,12.19
2022-09-02T03:03:15.385Z,12.27
2022-09-02T03:04:21.302Z,12.34
2022-09-02T03:05:25.580Z,12.28
2022-09-02T03:06:29.392Z,12.23
2022-09-02T03:07:33.341Z,12.23
2022-09-02T03:08:39.167Z,12.21
2022-09-02T03:09:44.544Z,12.37
2022-09-02T03:10:52.581Z,12.43
2022-09-02T03:11:59.165Z,12.50
2022-09-02T03:13:04.186Z,12.56
2022-09-02T03:14:10.239Z,12.55
2022-09-02T03:15:18.077Z,12.52
2022-09-02T03:16:27.711Z,12.49
2022-09-02T03:17:35.451Z,12.49
2022-09-02T03:19:54.937Z,12.76
2022-09-02T03:21:01.225Z,12.71
2022-09-02T03:22:04.767Z,12.76
2022-09-02T03:23:09.948Z,12.81
2022-09-02T03:24:14.260Z,12.80
2022-09-02T03:25:21.020Z,12.87
2022-09-02T03:26:25.650Z,12.82
2022-09-02T03:27:28.772Z,12.89
2022-09-02T03:28:35.370Z,12.89
2022-09-02T03:29:39.225Z,12.93
2022-09-02T03:30:45.777Z,12.86
2022-09-02T03:31:53.207Z,12.87
2022-09-02T03:33:04.114Z,12.78
2022-09-02T03:34:09.338Z,12.78
2022-09-02T03:35:19.875Z,12.79
2022-09-02T03:36:27.202Z,12.82
2022-09-02T03:37:32.594Z,12.86
2022-09-02T03:38:40.188Z,12.81
2022-09-02T03:39:44.272Z,12.77
2022-09-02T03:40:51.441Z,12.72
2022-09-02T03:41:57.374Z,12.62
2022-09-02T03:43:03.176Z,12.54
2022-09-02T03:44:13.783Z,12.49
2022-09-02T03:45:19.404Z,12.58
2022-09-02T03:46:26.034Z,12.61
2022-09-02T03:47:30.560Z,12.65
2022-09-02T03:48:35.417Z,12.72
2022-09-02T03:49:39.409Z,12.67
2022-09-02T03:50:48.067Z,12.68
2022-09-02T03:51:56.627Z,12.78
2022-09-02T03:53:01.210Z,12.60
2022-09-02T03:54:08.586Z,12.59
2022-09-02T03:55:21.102Z,12.62
2022-09-02T03:56:26.072Z,12.46
2022-09-02T03:57:30.272Z,12.46
2022-09-02T03:58:35.449Z,12.46
2022-09-02T03:59:41.250Z,12.55
2022-09-02T04:00:48.187Z,12.47
2022-09-02T04:01:52.330Z,12.59
2022-09-02T04:02:56.480Z,12.71
2022-09-02T04:04:01.655Z,12.76
2022-09-02T04:05:05.749Z,12.73
2022-09-02T04:06:14.002Z,12.74
2022-09-02T04:07:16.761Z,12.81
2022-09-02T04:08:20.718Z,12.92
2022-09-02T04:09:25.333Z,13.01
2022-09-02T04:10:28.860Z,12.94
2022-09-02T04:11:33.592Z,13.02
2022-09-02T04:12:39.281Z,12.99
2022-09-02T04:13:43.136Z,12.85
2022-09-02T04:14:57.464Z,12.93
2022-09-02T04:16:01.173Z,12.96
2022-09-02T04:17:07.449Z,12.85
2022-09-02T04:18:17.628Z,13.02
2022-09-02T04:19:22.716Z,12.95
2022-09-02T04:20:26.391Z,12.94
2022-09-02T04:21:36.154Z,12.98
2022-09-02T04:22:42.472Z,12.95
2022-09-02T04:23:46.821Z,13.01
2022-09-02T04:24:50.640Z,12.99
2022-09-02T04:25:55.704Z,13.03
2022-09-02T04:27:04.270Z,13.06
2022-09-02T04:28:08.052Z,13.14
2022-09-02T04:29:11.181Z,13.15
2022-09-02T04:30:18.359Z,13.23
2022-09-02T04:31:27.219Z,13.30
2022-09-02T04:32:34.850Z,13.34
2022-09-02T04:33:40.252Z,13.46
2022-09-02T04:34:45.345Z,13.55
2022-09-02T04:35:51.105Z,13.57
2022-09-02T04:36:55.243Z,13.72
2022-09-02T04:38:00.536Z,14.09
2022-09-02T04:39:07.019Z,14.66
2022-09-02T04:40:12.718Z,14.78
2022-09-02T04:41:22.056Z,14.81
2022-09-02T04:42:27.516Z,14.85
2022-09-02T04:43:31.581Z,14.88
2022-09-02T04:44:36.358Z,14.82
2022-09-02T04:45:42.478Z,14.92
2022-09-02T04:46:46.474Z,14.93
2022-09-02T04:47:53.215Z,15.06
2022-09-02T04:48:56.869Z,15.08
2022-09-02T04:50:00.173Z,15.12
2022-09-02T04:51:11.893Z,15.22
2022-09-02T04:52:17.831Z,15.34
2022-09-02T04:53:21.772Z,15.46
2022-09-02T04:54:26.211Z,15.41
2022-09-02T04:55:36.543Z,15.56
2022-09-02T04:56:42.457Z,15.68
2022-09-02T04:57:45.911Z,15.89
2022-09-02T04:58:51.257Z,16.21
2022-09-02T04:59:55.027Z,16.61
2022-09-02T05:00:59.257Z,17.47
2022-09-02T05:02:06.367Z,19.05
2022-09-02T05:03:13.713Z,21.05
2022-09-02T05:04:19.367Z,21.85
2022-09-02T05:05:25.179Z,21.08
2022-09-02T05:06:30.730Z,20.04
2022-09-02T05:07:40.883Z,19.76
2022-09-02T05:08:52.146Z,20.15
2022-09-02T05:09:58.697Z,20.58
2022-09-02T05:11:09.019Z,20.55
2022-09-02T05:12:12.759Z,20.43
2022-09-02T05:13:17.690Z,20.91
2022-09-02T05:14:29.595Z,21.04
2022-09-02T05:15:41.342Z,21.25
2022-09-02T05:16:47.395Z,21.24
2022-09-02T05:17:52.673Z,20.69
2022-09-02T05:18:58.050Z,20.02
2022-09-02T05:20:03.655Z,19.59
2022-09-02T05:21:09.045Z,18.67
2022-09-02T05:22:12.305Z,18.24
2022-09-02T05:23:17.880Z,18.17
2022-09-02T05:24:26.433Z,18.06
2022-09-02T05:25:28.698Z,18.09
2022-09-02T05:26:34.121Z,17.92
2022-09-02T05:27:40.309Z,18.05
2022-09-02T05:28:45.379Z,18.03
2022-09-02T05:29:53.779Z,17.97
2022-09-02T05:32:15.463Z,18.02
2022-09-02T05:33:19.732Z,17.96
2022-09-02T05:34:25.117Z,18.02
2022-09-02T05:35:30.459Z,18.14
2022-09-02T05:36:37.679Z,18.35
2022-09-02T05:37:41.441Z,18.52
2022-09-02T05:38:47.523Z,18.42
2022-09-02T05:39:51.865Z,18.44
2022-09-02T05:40:55.476Z,18.25
2022-09-02T05:42:00.929Z,18.28
2022-09-02T05:43:05.200Z,18.13
2022-09-02T05:44:08.918Z,17.98
2022-09-02T05:45:16.690Z,18.15
2022-09-02T05:46:31.689Z,18.24
2022-09-02T05:47:36.037Z,18.31
2022-09-02T05:48:58.793Z,18.69
2022-09-02T05:50:04.879Z,18.96
2022-09-02T05:51:10.616Z,19.14
2022-09-02T05:52:14.911Z,19.42
2022-09-02T05:53:21.028Z,19.54
2022-09-02T05:55:42.584Z,20.16
2022-09-02T05:56:48.774Z,19.86
2022-09-02T05:57:55.160Z,19.59
2022-09-02T05:59:01.863Z,19.17
2022-09-02T06:00:13.625Z,19.29
2022-09-02T06:01:18.210Z,19.44
2022-09-02T06:02:25.072Z,19.54
2022-09-02T06:03:28.827Z,19.97
2022-09-02T06:04:32.774Z,20.33
2022-09-02T06:05:38.683Z,20.38
2022-09-02T06:06:44.255Z,20.44
2022-09-02T06:07:53.758Z,20.18
2022-09-02T06:08:59.131Z,19.79
2022-09-02T06:10:05.928Z,19.61
2022-09-02T06:11:11.481Z,19.56
2022-09-02T06:12:20.736Z,19.12
2022-09-02T06:13:24.160Z,19.27
2022-09-02T06:14:31.477Z,19.70
2022-09-02T06:15:43.059Z,19.94
2022-09-02T06:16:49.527Z,20.23
2022-09-02T06:17:56.192Z,20.30
2022-09-02T06:19:03.109Z,20.09
2022-09-02T06:20:09.545Z,20.06
2022-09-02T06:21:16.492Z,19.87
2022-09-02T06:22:23.864Z,19.66
2022-09-02T06:23:27.785Z,19.56
2022-09-02T06:24:32.033Z,19.70
2022-09-02T06:25:43.927Z,19.91
2022-09-02T06:26:48.867Z,19.92
2022-09-02T06:27:52.557Z,20.13
2022-09-02T06:28:55.178Z,20.09
2022-09-02T06:29:58.653Z,20.05
2022-09-02T06:31:16.985Z,19.88
2022-09-02T06:32:21.021Z,19.99
2022-09-02T06:33:26.276Z,20.05
2022-09-02T06:34:32.839Z,20.11
2022-09-02T06:35:38.181Z,20.38
2022-09-02T06:36:45.030Z,20.49
2022-09-02T06:37:49.104Z,20.75
2022-09-02T06:38:54.873Z,20.98
2022-09-02T06:39:58.897Z,20.99
2022-09-02T06:41:03.550Z,21.35
2022-09-02T06:42:11.030Z,23.02
2022-09-02T06:43:19.549Z,25.35
2022-09-02T06:44:32.617Z,27.20
2022-09-02T06:45:42.676Z,29.20
2022-09-02T06:46:51.735Z,30.60
2022-09-02T06:47:56.129Z,31.92
2022-09-02T06:49:01.662Z,31.69
2022-09-02T06:50:07.062Z,32.22
2022-09-02T06:51:24.399Z,32.96
2022-09-02T06:52:30.305Z,33.48
2022-09-02T06:53:33.960Z,34.16
2022-09-02T06:54:37.231Z,34.02
2022-09-02T06:55:45.169Z,33.94
2022-09-02T06:56:49.995Z,34.13
2022-09-02T06:57:54.624Z,35.23
2022-09-02T06:59:00.228Z,34.75
2022-09-02T07:00:10.696Z,35.28
2022-09-02T07:01:23.153Z,35.75
2022-09-02T07:02:26.664Z,36.57
2022-09-02T07:03:53.460Z,36.96
2022-09-02T07:05:15.286Z,37.40
2022-09-02T07:06:24.284Z,37.48
2022-09-02T07:07:29.847Z,37.27
2022-09-02T07:08:36.354Z,37.32
2022-09-02T07:09:40.953Z,36.90
2022-09-02T07:10:47.439Z,36.97
2022-09-02T07:11:55.433Z,36.37
2022-09-02T07:12:59.877Z,36.27
2022-09-02T07:14:07.994Z,36.55
2022-09-02T07:15:13.700Z,36.16
2022-09-02T07:16:25.954Z,36.26
2022-09-02T07:17:24.984Z,35.92
2022-09-02T07:18:30.530Z,36.48
2022-09-02T07:19:33.998Z,36.83
2022-09-02T07:20:41.491Z,37.53
2022-09-02T07:21:48.862Z,37.59
2022-09-02T07:22:52.725Z,37.82
2022-09-02T07:24:03.161Z,37.27
2022-09-02T07:25:11.555Z,37.18
2022-09-02T07:26:16.982Z,37.66
2022-09-02T07:27:22.451Z,38.28
2022-09-02T07:28:29.254Z,38.50
2022-09-02T07:29:36.487Z,38.35
2022-09-02T07:30:45.609Z,37.68
2022-09-02T07:31:54.119Z,33.10
2022-09-02T07:32:57.692Z,28.73
2022-09-02T07:34:13.873Z,26.88
2022-09-02T07:35:17.969Z,27.23
2022-09-02T07:36:31.665Z,30.58
2022-09-02T07:37:36.263Z,33.20
2022-09-02T07:38:41.726Z,34.25
2022-09-02T07:39:46.024Z,34.71
2022-09-02T07:40:50.991Z,34.65
2022-09-02T07:41:55.428Z,35.26
2022-09-02T07:42:59.387Z,34.07
2022-09-02T07:44:07.137Z,31.95
2022-09-02T07:45:12.892Z,29.46
2022-09-02T07:46:18.494Z,27.94
2022-09-02T07:47:24.107Z,25.57
2022-09-02T07:48:30.792Z,24.39
2022-09-02T07:50:15.451Z,23.53
2022-09-02T07:50:43.078Z,23.40
2022-09-02T07:51:49.960Z,23.42
2022-09-02T07:52:58.175Z,23.37
2022-09-02T07:54:07.226Z,23.11
2022-09-02T07:55:14.939Z,23.55
2022-09-02T07:56:17.580Z,24.04
2022-09-02T07:57:21.292Z,25.72
2022-09-02T07:58:27.424Z,24.97
2022-09-02T07:59:31.390Z,24.64
2022-09-02T08:25:36.680Z,25.87
2022-09-02T08:26:40.586Z,24.34
2022-09-02T08:27:44.617Z,23.92
2022-09-02T08:28:48.225Z,23.95
2022-09-02T08:29:51.838Z,25.82
2022-09-02T08:30:58.849Z,27.34
2022-09-02T08:32:02.879Z,27.34
2022-09-02T08:33:09.002Z,27.94
2022-09-02T08:34:12.954Z,28.32
2022-09-02T08:35:18.886Z,27.98
2022-09-02T08:36:24.818Z,28.00
2022-09-02T08:37:30.526Z,26.85
2022-09-02T08:38:35.292Z,25.13
2022-09-02T08:39:37.808Z,25.08
2022-09-02T08:40:46.253Z,25.54
2022-09-02T08:43:41.716Z,25.42
2022-09-02T08:44:48.021Z,25.10
2022-09-02T08:45:54.952Z,24.84
2022-09-02T08:47:02.310Z,24.79
2022-09-02T08:48:15.743Z,25.81
2022-09-02T08:49:34.068Z,26.69
2022-09-02T08:50:42.481Z,26.98
2022-09-02T08:51:53.156Z,27.72
2022-09-02T08:52:59.429Z,27.52
2022-09-02T08:54:12.149Z,26.83
2022-09-02T08:55:30.659Z,27.40
2022-09-02T08:56:35.735Z,27.04
2022-09-02T08:57:43.454Z,27.24
2022-09-02T08:58:56.347Z,27.46
2022-09-02T09:00:03.411Z,27.82
2022-09-02T09:02:47.530Z,27.88
2022-09-02T09:04:02.724Z,26.46
2022-09-02T09:05:23.925Z,26.61
2022-09-02T09:08:14.511Z,27.47
2022-09-02T09:09:46.751Z,27.73
2022-09-02T09:11:06.780Z,27.68
2022-09-02T09:12:19.419Z,27.92
2022-09-02T09:13:30.514Z,27.47
2022-09-02T09:14:40.843Z,27.29
2022-09-02T09:16:04.837Z,26.85
2022-09-02T09:17:17.625Z,27.28
2022-09-02T09:18:27.316Z,27.15
2022-09-02T09:19:56.838Z,27.00
2022-09-02T09:21:01.295Z,27.16
2022-09-02T09:22:05.865Z,27.05
2022-09-02T09:23:26.120Z,27.96
2022-09-02T09:24:41.221Z,27.58
2022-09-02T09:25:48.598Z,26.80
2022-09-02T09:26:55.731Z,27.20
2022-09-02T09:28:01.169Z,27.29
2022-09-02T09:29:06.090Z,26.67
2022-09-02T09:30:15.008Z,26.09
2022-09-02T09:31:28.643Z,25.66
2022-09-02T09:32:42.279Z,25.59
2022-09-02T09:33:58.234Z,25.39
2022-09-02T09:36:20.606Z,25.38
2022-09-02T09:37:36.526Z,25.38
2022-09-02T09:38:40.462Z,26.10
2022-09-02T09:39:43.066Z,26.36
2022-09-02T09:40:49.383Z,26.34
2022-09-02T09:42:03.369Z,26.23
2022-09-02T09:43:14.685Z,26.27
2022-09-02T09:44:44.359Z,26.07
2022-09-02T09:45:52.703Z,26.22
2022-09-02T09:47:07.555Z,26.84
2022-09-02T09:48:24.028Z,26.78
2022-09-02T09:49:27.983Z,26.75
2022-09-02T09:50:33.338Z,26.74
2022-09-02T09:51:49.844Z,25.88
2022-09-02T09:52:44.591Z,26.39
2022-09-02T09:53:48.327Z,26.72
2022-09-02T09:55:12.655Z,26.72
2022-09-02T09:56:19.614Z,26.84
2022-09-02T09:57:23.918Z,26.75
2022-09-02T09:58:37.799Z,26.79
2022-09-02T09:59:46.204Z,27.08
2022-09-02T10:00:53.121Z,27.38
2022-09-02T10:02:00.387Z,27.39
2022-09-02T10:03:07.649Z,27.37
2022-09-02T10:04:42.977Z,27.09
2022-09-02T10:05:40.890Z,27.09
2022-09-02T10:06:45.385Z,27.45
2022-09-02T10:08:13.122Z,27.02
2022-09-02T10:09:22.769Z,26.99
2022-09-02T10:10:31.130Z,26.68
2022-09-02T10:11:40.297Z,26.86
2022-09-02T10:12:45.081Z,26.80
2022-09-02T10:13:50.229Z,27.07
2022-09-02T10:14:54.605Z,27.21
2022-09-02T10:16:25.053Z,27.11
2022-09-02T10:17:47.867Z,26.66
2022-09-02T10:18:57.205Z,26.50
2022-09-02T10:20:10.111Z,26.72
2022-09-02T10:21:40.817Z,26.75
2022-09-02T10:24:20.925Z,26.51
2022-09-02T10:25:35.612Z,26.12
2022-09-02T10:26:50.096Z,25.78
2022-09-02T10:28:22.970Z,25.63
2022-09-02T10:29:50.594Z,25.63
2022-09-02T10:31:06.072Z,25.75
2022-09-02T10:32:41.512Z,24.78
2022-09-02T10:34:16.180Z,24.54
2022-09-02T10:35:41.593Z,24.06
2022-09-02T10:37:05.422Z,23.84
2022-09-02T10:38:16.598Z,24.35
2022-09-02T10:39:41.120Z,24.28
2022-09-02T10:40:50.763Z,24.41
2022-09-02T10:41:58.125Z,24.79
2022-09-02T10:43:12.804Z,25.17
2022-09-02T10:44:34.307Z,25.10
2022-09-02T10:45:51.600Z,25.14
2022-09-02T10:47:06.263Z,25.17
2022-09-02T10:48:15.578Z,25.34
2022-09-02T10:49:49.756Z,24.92
2022-09-02T10:51:03.027Z,24.67
2022-09-02T10:52:25.237Z,25.06
2022-09-02T10:53:54.503Z,25.11
2022-09-02T10:55:16.006Z,25.30
2022-09-02T10:56:25.601Z,24.87
2022-09-02T10:57:32.907Z,25.20
2022-09-02T10:58:41.298Z,25.10
2022-09-02T10:59:53.104Z,24.65
2022-09-02T11:00:58.324Z,24.74
2022-09-02T11:02:24.306Z,24.79
2022-09-02T11:03:35.876Z,24.65
2022-09-02T11:04:46.980Z,24.80
2022-09-02T11:05:58.841Z,24.48
2022-09-02T11:07:06.085Z,24.37
2022-09-02T11:08:16.133Z,24.51
2022-09-02T11:09:50.973Z,24.64
2022-09-02T11:11:04.458Z,24.42
2022-09-02T11:12:17.156Z,24.74
2022-09-02T11:13:39.641Z,25.28
2022-09-02T11:14:49.906Z,24.62
2022-09-02T11:17:26.886Z,24.52
2022-09-02T11:18:48.915Z,24.54
2022-09-02T11:19:59.280Z,24.69
2022-09-02T11:21:12.423Z,24.33
2022-09-02T11:22:30.839Z,24.37
2022-09-02T11:23:42.097Z,24.60
2022-09-02T11:24:59.125Z,24.46
2022-09-02T11:26:22.398Z,24.73
2022-09-02T11:27:42.833Z,24.61
2022-09-02T11:28:59.006Z,24.63
2022-09-02T11:30:26.150Z,24.67
2022-09-02T11:31:55.861Z,24.53
2022-09-02T11:33:14.026Z,24.31
2022-09-02T11:34:38.747Z,24.01
2022-09-02T11:35:49.903Z,23.59
2022-09-02T11:36:55.060Z,23.95
2022-09-02T11:38:03.669Z,24.11
2022-09-02T11:40:38.872Z,23.77
2022-09-02T11:42:23.639Z,23.64
2022-09-02T11:43:47.600Z,23.38
2022-09-02T11:45:24.406Z,23.38
2022-09-02T11:47:02.321Z,23.12
2022-09-02T11:48:14.308Z,23.26
2022-09-02T11:49:43.682Z,23.77
2022-09-02T11:51:10.765Z,24.00
2022-09-02T11:52:33.144Z,24.34
2022-09-02T11:53:43.816Z,24.23
2022-09-02T11:54:54.061Z,24.18
2022-09-02T11:56:15.894Z,24.62
2022-09-02T11:57:24.206Z,24.67
2022-09-02T11:58:36.760Z,24.64
2022-09-02T11:59:59.140Z,24.62
2022-09-02T12:02:49.628Z,24.38
2022-09-02T12:04:55.964Z,24.39
2022-09-02T12:05:33.427Z,24.34
2022-09-02T12:06:36.554Z,24.35
2022-09-02T12:07:48.914Z,24.48
2022-09-02T12:10:11.411Z,24.47
2022-09-02T12:11:40.485Z,24.48
2022-09-02T12:12:51.812Z,24.85
2022-09-02T12:13:55.090Z,24.58
2022-09-02T12:15:04.462Z,24.40
2022-09-02T12:16:21.321Z,24.38
2022-09-02T12:17:50.303Z,24.43
2022-09-02T12:19:01.094Z,24.67
2022-09-02T12:20:11.529Z,24.59
2022-09-02T12:21:18.797Z,24.82
2022-09-02T12:22:28.734Z,24.78
2022-09-02T12:23:59.140Z,24.68
2022-09-02T12:25:04.477Z,24.33
2022-09-02T12:26:15.320Z,24.45
2022-09-02T12:27:27.360Z,24.62
2022-09-02T12:28:32.294Z,24.26
2022-09-02T12:31:01.986Z,24.59
2022-09-02T12:32:06.738Z,24.47
2022-09-02T12:33:14.392Z,24.80
2022-09-02T12:34:32.466Z,24.20
2022-09-02T12:36:58.153Z,24.62
2022-09-02T12:38:21.213Z,24.47
2022-09-02T12:39:29.641Z,24.19
2022-09-02T12:42:07.642Z,24.60
2022-09-02T12:43:21.992Z,24.09
2022-09-02T12:44:32.568Z,23.67
2022-09-02T12:45:39.976Z,23.31
2022-09-02T12:46:50.147Z,23.15
2022-09-02T12:48:13.756Z,23.65
2022-09-02T12:49:37.198Z,23.93
2022-09-02T12:50:58.336Z,24.02
2022-09-02T12:52:08.077Z,23.81
2022-09-02T12:53:32.913Z,24.09
2022-09-02T12:54:49.734Z,24.18
2022-09-02T12:56:05.753Z,24.23
2022-09-02T12:57:12.851Z,23.99
2022-09-02T12:58:19.093Z,23.59
2022-09-02T12:59:35.158Z,23.87
2022-09-02T13:00:46.905Z,24.01
2022-09-02T13:02:05.099Z,23.99
2022-09-02T13:03:36.676Z,23.90
2022-09-02T13:05:00.601Z,23.92
2022-09-02T13:06:12.844Z,23.99
2022-09-02T13:07:41.043Z,23.81
2022-09-02T13:09:23.788Z,23.68
2022-09-02T13:10:37.362Z,23.93
2022-09-02T13:12:04.248Z,23.97
2022-09-02T13:13:23.904Z,23.99
2022-09-02T13:14:43.547Z,23.67
2022-09-02T13:41:33.152Z,23.35
2022-09-02T13:42:37.410Z,23.59
2022-09-02T13:43:43.033Z,23.67
2022-09-02T13:44:47.752Z,23.72
2022-09-02T13:45:54.751Z,23.83
2022-09-02T13:48:22.461Z,23.43
2022-09-02T13:49:32.723Z,23.43
2022-09-02T13:50:36.193Z,23.28
2022-09-02T13:51:42.030Z,23.41
2022-09-02T13:54:22.221Z,23.28
2022-09-02T13:55:06.874Z,23.41
2022-09-02T13:56:14.247Z,23.53
2022-09-02T13:57:30.658Z,23.30
2022-09-02T14:00:16.809Z,23.57
2022-09-02T14:01:41.265Z,23.69
2022-09-02T14:02:50.078Z,23.70
2022-09-02T14:03:56.322Z,23.52
2022-09-02T14:05:10.641Z,23.56
2022-09-02T14:06:17.697Z,23.61
2022-09-02T14:07:30.094Z,23.57
2022-09-02T14:08:34.122Z,23.61
2022-09-02T14:09:40.509Z,23.48
2022-09-02T14:10:45.888Z,23.45
2022-09-02T14:11:51.911Z,23.40
2022-09-02T14:13:02.703Z,23.42
2022-09-02T14:14:06.882Z,23.39
2022-09-02T14:15:13.951Z,23.37
2022-09-02T14:16:35.611Z,23.36
2022-09-02T14:17:40.241Z,23.51
2022-09-02T14:19:04.799Z,23.53
2022-09-02T14:20:23.423Z,23.58
2022-09-02T14:21:26.179Z,23.49
2022-09-02T14:22:30.917Z,23.36
2022-09-02T14:23:35.918Z,23.29
2022-09-02T14:24:43.894Z,23.07
2022-09-02T14:25:53.725Z,22.66
2022-09-02T14:27:00.386Z,22.71
2022-09-02T14:29:26.793Z,23.00
2022-09-02T14:30:38.344Z,22.90
2022-09-02T14:31:43.645Z,22.77
2022-09-02T14:32:47.248Z,22.61
2022-09-02T14:33:52.294Z,22.55
2022-09-02T14:35:20.294Z,22.57
2022-09-02T14:36:28.895Z,22.49
2022-09-02T14:37:32.543Z,22.38
2022-09-02T14:40:12.516Z,22.54
2022-09-02T14:41:29.648Z,22.47
2022-09-02T14:42:36.241Z,22.54
2022-09-02T14:43:50.763Z,22.39
2022-09-02T14:44:54.897Z,22.36
2022-09-02T14:46:02.569Z,22.50
2022-09-02T14:47:09.315Z,22.75
2022-09-02T14:48:19.193Z,22.54
2022-09-02T14:49:25.315Z,22.56
2022-09-02T14:50:37.088Z,22.51
2022-09-02T14:51:48.414Z,22.47
2022-09-02T14:52:55.806Z,22.48
2022-09-02T14:54:00.845Z,22.52
2022-09-02T14:55:08.922Z,22.44
2022-09-02T14:56:13.112Z,22.44
2022-09-02T14:57:32.880Z,22.32
2022-09-02T14:58:37.045Z,22.31
2022-09-02T14:59:43.394Z,22.54
2022-09-02T15:00:54.905Z,22.63
2022-09-02T15:01:59.951Z,22.45
2022-09-02T15:03:05.167Z,22.30
2022-09-02T15:04:11.658Z,22.36
2022-09-02T15:05:17.189Z,22.45
2022-09-02T15:06:20.607Z,22.27
2022-09-02T15:07:31.324Z,22.24
2022-09-02T15:08:34.631Z,22.25
2022-09-02T15:09:40.267Z,22.06
2022-09-02T15:10:46.016Z,22.09
2022-09-02T15:11:53.698Z,22.01
2022-09-02T15:13:00.126Z,22.14
2022-09-02T15:14:04.097Z,22.22
2022-09-02T15:15:10.569Z,22.22
2022-09-02T15:16:13.531Z,22.13
2022-09-02T15:17:17.575Z,22.19
2022-09-02T15:18:21.310Z,22.08
2022-09-02T15:19:25.004Z,22.04
2022-09-02T15:20:29.510Z,21.94
2022-09-02T15:21:33.596Z,21.97
2022-09-02T15:22:36.973Z,22.09
2022-09-02T15:23:41.979Z,22.00
2022-09-02T15:25:58.669Z,21.81
2022-09-02T15:27:03.076Z,21.76
2022-09-02T15:28:06.999Z,21.86
2022-09-02T15:29:13.505Z,21.85
2022-09-02T15:30:17.209Z,21.82
2022-09-02T15:31:20.699Z,21.96
2022-09-02T15:32:27.516Z,21.87
2022-09-02T15:33:33.855Z,21.81
2022-09-02T15:34:37.333Z,21.88
2022-09-02T15:35:40.759Z,21.77
2022-09-02T15:36:46.136Z,21.65
2022-09-02T15:37:54.477Z,21.70
2022-09-02T15:38:59.654Z,21.48
2022-09-02T15:40:09.309Z,21.54
2022-09-02T15:41:22.203Z,21.54
2022-09-02T15:42:28.848Z,21.50
2022-09-02T15:43:36.420Z,21.52
2022-09-02T15:44:40.970Z,21.55
2022-09-02T15:47:01.940Z,21.63
2022-09-02T15:48:06.578Z,21.51
2022-09-02T15:49:14.647Z,21.39
2022-09-02T15:50:19.068Z,21.47
2022-09-02T15:51:25.234Z,21.46
2022-09-02T15:52:28.820Z,21.50
2022-09-02T15:53:32.387Z,21.41
2022-09-02T15:54:36.292Z,21.25
2022-09-02T15:55:42.549Z,21.20
2022-09-02T15:56:47.824Z,21.35
2022-09-02T15:57:53.958Z,21.35
2022-09-02T15:59:18.095Z,21.41
2022-09-02T16:00:22.539Z,21.29
2022-09-02T16:01:33.031Z,21.24
2022-09-02T16:02:35.671Z,21.23
2022-09-02T16:03:38.684Z,21.25
2022-09-02T16:04:43.383Z,21.26
2022-09-02T16:05:47.484Z,21.27
2022-09-02T16:06:54.881Z,21.24
2022-09-02T16:07:59.936Z,21.21
2022-09-02T16:09:03.583Z,21.26
2022-09-02T16:10:09.121Z,21.30